Time;durP1;ratioP1;P1;durP2;ratioP2;P2;SDS_P1;SDS_P2;PMS_P1;PMS_P2;Temp;Humidity;BMP_temperature;BMP_pressure;BME280_temperature;BME280_humidity;BME280_pressure;Samples;Min_cycle;Max_cycle;Signal;HPM_P1;HPM_P2
2021/11/19 00:02:03;;;;;;;28.75;12.98;;;10.60;86.50;;;;;;5026953;28;20412;-72
2021/11/19 00:04:31;;;;;;;25.85;13.63;;;10.60;86.50;;;;;;5032143;28;20049;-72
2021/11/19 00:06:58;;;;;;;28.65;13.73;;;10.60;86.60;;;;;;5021946;28;20071;-72
2021/11/19 00:09:25;;;;;;;28.38;13.20;;;10.60;86.60;;;;;;5020377;28;20585;-72
2021/11/19 00:11:52;;;;;;;27.20;13.40;;;10.60;86.60;;;;;;5018465;28;20041;-72
2021/11/19 00:14:20;;;;;;;25.33;13.15;;;10.60;86.60;;;;;;5031314;28;20096;-72
2021/11/19 00:16:49;;;;;;;25.40;12.95;;;10.60;86.70;;;;;;5017708;28;20080;-71
2021/11/19 00:19:15;;;;;;;27.60;13.15;;;10.60;86.70;;;;;;5027407;28;20412;-72
2021/11/19 00:21:43;;;;;;;30.05;13.65;;;10.60;86.70;;;;;;5023715;28;20018;-72
2021/11/19 00:24:09;;;;;;;28.98;13.55;;;10.60;86.80;;;;;;5020665;28;20059;-71
2021/11/19 00:26:36;;;;;;;27.02;12.77;;;10.50;86.80;;;;;;5029391;28;20113;-72
2021/11/19 00:29:03;;;;;;;27.17;13.80;;;10.50;86.80;;;;;;5019790;28;20103;-72
2021/11/19 00:31:29;;;;;;;25.48;13.77;;;10.50;86.80;;;;;;5016765;28;20030;-72
2021/11/19 00:33:55;;;;;;;25.67;13.30;;;10.50;86.80;;;;;;5024686;28;20519;-72
2021/11/19 00:36:23;;;;;;;27.77;13.00;;;10.50;86.80;;;;;;5026345;28;20029;-72
2021/11/19 00:38:56;;;;;;;25.73;12.77;;;10.50;86.80;;;;;;5016835;28;20741;-71
2021/11/19 00:41:22;;;;;;;24.88;13.13;;;10.50;86.90;;;;;;5024554;28;20025;-72
2021/11/19 00:43:49;;;;;;;26.67;14.30;;;10.40;86.80;;;;;;5025262;28;20152;-72
2021/11/19 00:46:15;;;;;;;36.08;14.80;;;10.40;87.00;;;;;;5018762;28;20116;-72
2021/11/19 00:48:43;;;;;;;30.77;14.05;;;10.30;87.10;;;;;;5022066;28;20453;-72
2021/11/19 00:51:12;;;;;;;29.27;15.05;;;10.20;87.20;;;;;;5028137;28;20119;-72
2021/11/19 00:53:42;;;;;;;27.90;15.32;;;10.20;87.40;;;;;;5028366;28;20030;-72
2021/11/19 00:56:09;;;;;;;31.58;14.45;;;10.10;87.50;;;;;;5015106;28;20100;-71
2021/11/19 00:58:35;;;;;;;31.65;14.82;;;10.00;87.70;;;;;;5027085;28;20041;-72
2021/11/19 01:01:06;;;;;;;31.58;15.35;;;9.90;87.80;;;;;;5022979;28;20029;-72
2021/11/19 01:03:32;;;;;;;30.58;16.38;;;9.80;87.90;;;;;;5023242;28;20495;-72
2021/11/19 01:05:59;;;;;;;31.23;17.63;;;9.70;88.10;;;;;;5028836;28;20040;-72
2021/11/19 01:08:26;;;;;;;37.70;18.00;;;9.70;88.60;;;;;;5013459;28;20041;-72
2021/11/19 01:10:54;;;;;;;34.72;15.80;;;9.60;89.40;;;;;;5025483;28;20591;-72
2021/11/19 01:13:21;;;;;;;32.78;15.77;;;9.50;89.20;;;;;;5021284;28;20048;-72
2021/11/19 01:15:50;;;;;;;36.35;18.55;;;9.50;89.20;;;;;;5023880;28;20509;-72
2021/11/19 01:18:24;;;;;;;32.67;18.33;;;9.40;89.20;;;;;;5016080;28;20072;-72
2021/11/19 01:21:15;;;;;;;30.75;17.30;;;9.30;89.30;;;;;;5027944;28;20029;-72
2021/11/19 01:23:42;;;;;;;37.20;17.83;;;9.20;89.50;;;;;;5014306;28;20452;-72
2021/11/19 01:26:13;;;;;;;33.13;17.58;;;9.20;90.00;;;;;;5014501;28;20029;-72
2021/11/19 01:28:41;;;;;;;31.63;15.85;;;9.10;89.90;;;;;;5022785;28;20535;-72
2021/11/19 01:31:13;;;;;;;27.10;15.50;;;9.00;89.80;;;;;;5019197;28;20026;-72
2021/11/19 01:33:40;;;;;;;25.85;14.57;;;9.00;89.80;;;;;;5020378;28;20079;-72
2021/11/19 01:36:06;;;;;;;25.33;14.85;;;8.90;89.60;;;;;;5025155;28;20523;-71
2021/11/19 01:38:32;;;;;;;26.92;15.68;;;8.80;89.50;;;;;;5029512;28;20121;-72
2021/11/19 01:41:06;;;;;;;29.98;16.23;;;8.80;89.40;;;;;;5027375;28;20025;-72
2021/11/19 01:43:34;;;;;;;30.17;15.60;;;8.70;89.40;;;;;;5021988;28;20025;-72
2021/11/19 01:46:04;;;;;;;23.70;14.57;;;8.70;89.40;;;;;;5019435;28;20030;-71
2021/11/19 01:48:39;;;;;;;26.20;14.25;;;8.60;89.30;;;;;;5017151;28;20057;-71
2021/11/19 01:51:38;;;;;;;31.48;14.05;;;8.50;89.20;;;;;;5016209;28;20037;-72
2021/11/19 01:54:09;;;;;;;23.45;13.43;;;8.50;89.20;;;;;;5022943;28;20030;-72
2021/11/19 01:56:41;;;;;;;47.30;14.73;;;8.40;89.10;;;;;;5012541;28;20096;-72
2021/11/19 01:59:13;;;;;;;62.08;14.30;;;8.40;89.20;;;;;;5022101;28;20443;-71
2021/11/19 02:01:55;;;;;;;32.88;12.02;;;8.30;89.10;;;;;;5026389;28;20069;-72
2021/11/19 02:04:27;;;;;;;16.30;10.18;;;8.30;88.80;;;;;;5025814;28;20112;-72
2021/11/19 02:07:00;;;;;;;16.10;10.50;;;8.20;88.60;;;;;;5025144;28;20037;-72
2021/11/19 02:09:53;;;;;;;19.27;11.45;;;8.10;88.50;;;;;;5027593;28;20017;-72
2021/11/19 02:12:44;;;;;;;14.98;10.65;;;8.10;88.60;;;;;;5028930;28;20037;-72
2021/11/19 02:15:12;;;;;;;16.92;10.55;;;8.00;88.50;;;;;;5025901;28;20457;-72
2021/11/19 02:17:40;;;;;;;15.40;10.05;;;8.00;88.50;;;;;;5011876;28;20030;-72
2021/11/19 02:20:11;;;;;;;17.67;11.18;;;7.90;88.40;;;;;;5030108;28;20072;-71
2021/11/19 02:22:44;;;;;;;19.40;11.07;;;7.90;88.40;;;;;;5026202;28;20400;-72
2021/11/19 02:25:17;;;;;;;26.48;11.55;;;7.80;88.40;;;;;;5024958;28;20167;-72
2021/11/19 02:28:04;;;;;;;56.63;12.45;;;7.80;88.40;;;;;;5021615;28;20141;-72
2021/11/19 02:30:35;;;;;;;68.70;11.85;;;7.80;88.40;;;;;;5024771;28;20049;-72
2021/11/19 02:33:08;;;;;;;28.88;9.73;;;7.80;88.40;;;;;;5016856;28;20120;-72
2021/11/19 02:35:58;;;;;;;13.60;9.15;;;7.70;88.40;;;;;;5025269;28;20104;-72
2021/11/19 02:38:30;;;;;;;15.95;9.82;;;7.70;88.50;;;;;;5007608;28;20520;-72
2021/11/19 02:40:56;;;;;;;12.60;8.20;;;7.70;88.40;;;;;;5008071;28;20045;-72
2021/11/19 02:43:45;;;;;;;11.35;7.82;;;7.70;88.40;;;;;;4982003;28;20042;-72
2021/11/19 02:46:27;;;;;;;11.70;7.40;;;7.60;88.30;;;;;;5007167;28;20133;-72
2021/11/19 02:48:53;;;;;;;11.82;6.93;;;7.60;88.20;;;;;;5007152;28;20042;-72
2021/11/19 02:51:19;;;;;;;20.27;9.05;;;7.50;88.10;;;;;;5006768;28;20076;-72
2021/11/19 02:53:46;;;;;;;19.52;9.02;;;7.50;88.10;;;;;;5007319;28;20534;-72
2021/11/19 02:56:13;;;;;;;16.83;8.73;;;7.50;88.10;;;;;;5006820;28;20070;-72
2021/11/19 02:58:45;;;;;;;21.80;11.27;;;7.40;88.10;;;;;;5008181;28;20412;-72
2021/11/19 03:01:13;;;;;;;12.95;8.45;;;7.40;88.20;;;;;;5006375;28;20429;-72
2021/11/19 03:03:53;;;;;;;14.50;8.15;;;7.40;88.20;;;;;;5004978;28;20045;-71
2021/11/19 03:06:18;;;;;;;12.10;7.25;;;7.40;88.20;;;;;;5007053;28;20036;-72
2021/11/19 03:08:45;;;;;;;13.73;7.35;;;7.30;88.10;;;;;;5007548;28;20038;-72
2021/11/19 03:11:13;;;;;;;15.00;7.80;;;7.30;88.10;;;;;;5007341;28;20026;-72
2021/11/19 03:13:41;;;;;;;13.27;8.05;;;7.30;88.00;;;;;;5008139;28;20600;-72
2021/11/19 03:16:08;;;;;;;14.27;7.30;;;7.20;87.70;;;;;;5013727;28;20046;-72
2021/11/19 03:18:35;;;;;;;18.85;8.07;;;7.20;87.50;;;;;;5019459;28;20120;-72
2021/11/19 03:21:04;;;;;;;15.10;8.77;;;7.10;87.30;;;;;;5014285;28;20021;-72
2021/11/19 03:23:32;;;;;;;15.15;8.20;;;7.10;87.20;;;;;;5026316;28;20029;-72
2021/11/19 03:26:00;;;;;;;15.32;7.95;;;7.10;87.10;;;;;;5014925;28;20045;-72
2021/11/19 03:28:27;;;;;;;18.25;10.23;;;7.00;87.00;;;;;;5025921;28;20091;-72
2021/11/19 03:30:55;;;;;;;20.70;10.88;;;7.00;87.10;;;;;;5019419;28;20109;-72
2021/11/19 03:33:24;;;;;;;16.92;9.27;;;6.90;87.10;;;;;;5021905;28;20032;-72
2021/11/19 03:35:51;;;;;;;13.70;8.15;;;6.90;87.00;;;;;;5026045;28;20508;-72
2021/11/19 03:38:19;;;;;;;14.52;7.40;;;6.90;87.00;;;;;;5023997;28;20747;-72
2021/11/19 03:40:47;;;;;;;14.02;6.95;;;6.80;86.90;;;;;;5014676;28;20026;-70
2021/11/19 03:43:26;;;;;;;12.05;7.20;;;6.80;87.00;;;;;;5024111;28;20025;-72
2021/11/19 03:45:56;;;;;;;13.13;7.43;;;6.80;87.00;;;;;;5019076;28;20022;-72
2021/11/19 03:48:23;;;;;;;13.70;7.28;;;6.70;86.90;;;;;;5018490;28;20061;-72
2021/11/19 03:50:53;;;;;;;12.45;7.05;;;6.70;86.70;;;;;;5012537;28;20058;-72
2021/11/19 03:53:21;;;;;;;13.02;7.35;;;6.70;86.70;;;;;;5023029;28;20022;-72
2021/11/19 03:55:49;;;;;;;13.77;7.63;;;6.70;86.70;;;;;;5014951;28;20038;-72
2021/11/19 03:58:17;;;;;;;10.93;7.05;;;6.70;86.70;;;;;;5023768;28;20485;-72
2021/11/19 04:00:51;;;;;;;10.90;6.45;;;6.60;86.70;;;;;;5026878;28;20535;-72
2021/11/19 04:03:17;;;;;;;11.52;6.80;;;6.60;86.60;;;;;;5023688;28;20485;-72
2021/11/19 04:05:44;;;;;;;13.52;7.28;;;6.60;86.60;;;;;;5011431;28;20036;-72
2021/11/19 04:08:10;;;;;;;11.80;6.88;;;6.60;86.60;;;;;;5027654;28;20095;-72
2021/11/19 04:10:37;;;;;;;8.77;5.68;;;6.50;86.40;;;;;;5018629;28;20478;-72
2021/11/19 04:13:03;;;;;;;13.00;7.22;;;6.50;86.30;;;;;;5018772;28;20044;-72
2021/11/19 04:15:37;;;;;;;14.50;6.55;;;6.50;86.20;;;;;;5021010;28;20112;-72
2021/11/19 04:18:03;;;;;;;17.92;9.02;;;6.40;86.10;;;;;;5028893;28;20045;-72
2021/11/19 04:20:30;;;;;;;11.20;7.13;;;6.40;86.10;;;;;;5023402;28;20444;-72
2021/11/19 04:22:56;;;;;;;12.55;7.00;;;6.30;86.20;;;;;;5029649;28;20029;-71
2021/11/19 04:25:24;;;;;;;11.50;6.70;;;6.40;86.40;;;;;;5021002;28;20036;-72
2021/11/19 04:27:51;;;;;;;14.40;7.45;;;6.30;86.40;;;;;;5023148;28;20046;-72
2021/11/19 04:30:21;;;;;;;15.98;7.43;;;6.30;86.30;;;;;;5017812;28;20029;-71
2021/11/19 04:32:47;;;;;;;14.55;6.90;;;6.30;86.30;;;;;;5019222;28;20029;-72
2021/11/19 04:35:14;;;;;;;14.23;7.57;;;6.30;86.30;;;;;;5015630;28;20026;-72
2021/11/19 04:37:40;;;;;;;11.63;7.35;;;6.20;86.20;;;;;;5031270;28;20116;-71
2021/11/19 04:40:07;;;;;;;17.88;7.95;;;6.20;86.20;;;;;;5020428;28;20121;-72
2021/11/19 04:42:33;;;;;;;22.50;7.55;;;6.20;86.30;;;;;;5018668;28;20030;-72
2021/11/19 04:44:59;;;;;;;13.38;7.20;;;6.20;86.30;;;;;;5030587;28;20029;-72
2021/11/19 04:47:25;;;;;;;13.88;7.32;;;6.20;86.40;;;;;;5017984;28;20148;-72
2021/11/19 04:49:51;;;;;;;11.82;7.20;;;6.20;86.40;;;;;;5017936;28;20446;-72
2021/11/19 04:52:17;;;;;;;11.43;7.50;;;6.20;86.40;;;;;;5022716;28;20025;-72
2021/11/19 04:54:44;;;;;;;12.23;7.30;;;6.10;86.10;;;;;;5023484;28;20026;-72
2021/11/19 04:57:11;;;;;;;12.65;7.10;;;6.10;86.20;;;;;;5024441;28;20033;-72
2021/11/19 04:59:38;;;;;;;12.20;6.93;;;6.10;86.20;;;;;;5013716;28;20029;-72
2021/11/19 05:02:07;;;;;;;10.75;6.75;;;6.10;86.10;;;;;;5031697;28;20389;-72
2021/11/19 05:04:35;;;;;;;12.15;6.70;;;6.10;86.00;;;;;;5018102;28;20393;-72
2021/11/19 05:07:01;;;;;;;14.18;6.95;;;6.00;85.90;;;;;;5020986;28;20026;-72
2021/11/19 05:09:29;;;;;;;15.85;7.07;;;6.00;85.90;;;;;;5025143;28;20076;-72
2021/11/19 05:12:15;;;;;;;15.70;7.63;;;6.00;85.90;;;;;;5023293;28;20109;-72
2021/11/19 05:14:43;;;;;;;16.30;7.53;;;6.00;86.00;;;;;;5014079;28;20105;-72
2021/11/19 05:17:10;;;;;;;13.88;6.75;;;6.00;86.10;;;;;;5018599;28;20615;-72
2021/11/19 05:19:36;;;;;;;10.10;6.65;;;6.00;86.20;;;;;;5029634;28;20041;-71
2021/11/19 05:22:04;;;;;;;11.05;6.68;;;6.00;86.10;;;;;;5027857;28;20038;-73
2021/11/19 05:24:30;;;;;;;11.40;6.00;;;5.90;86.00;;;;;;5024784;28;20030;-72
2021/11/19 05:26:56;;;;;;;10.45;6.30;;;5.90;85.90;;;;;;5029173;28;20037;-73
2021/11/19 05:29:22;;;;;;;10.25;6.55;;;5.90;85.70;;;;;;5029155;28;20034;-73
2021/11/19 05:31:50;;;;;;;11.18;6.43;;;5.80;85.40;;;;;;5018105;28;20044;-73
2021/11/19 05:34:18;;;;;;;10.32;6.00;;;5.80;85.40;;;;;;5019240;28;20046;-72
2021/11/19 05:36:44;;;;;;;11.43;7.60;;;5.80;85.40;;;;;;5018670;28;20523;-72
2021/11/19 05:39:11;;;;;;;20.45;6.18;;;5.80;85.50;;;;;;5016726;28;20120;-72
2021/11/19 05:41:37;;;;;;;14.50;6.53;;;5.80;85.70;;;;;;5026701;28;20025;-73
2021/11/19 05:44:04;;;;;;;10.52;6.38;;;5.70;85.70;;;;;;5031513;28;20033;-72
2021/11/19 05:46:36;;;;;;;13.18;7.07;;;5.70;85.60;;;;;;5021884;28;20107;-73
2021/11/19 05:49:02;;;;;;;12.38;7.10;;;5.70;85.60;;;;;;5025016;28;20445;-70
2021/11/19 05:51:28;;;;;;;14.15;7.03;;;5.60;85.30;;;;;;5027844;28;20025;-71
2021/11/19 05:53:54;;;;;;;11.30;6.65;;;5.60;85.40;;;;;;5027870;28;20045;-70
2021/11/19 05:56:22;;;;;;;12.98;7.07;;;5.60;85.40;;;;;;5028556;28;20021;-70
2021/11/19 05:58:48;;;;;;;12.60;7.05;;;5.60;85.40;;;;;;5027538;28;20409;-70
2021/11/19 06:01:17;;;;;;;13.77;7.65;;;5.50;85.50;;;;;;5019620;28;20034;-72
2021/11/19 06:03:45;;;;;;;18.90;7.50;;;5.50;85.60;;;;;;5018629;28;20029;-68
2021/11/19 06:06:12;;;;;;;11.57;6.78;;;5.50;85.80;;;;;;5026664;28;20571;-70
2021/11/19 06:08:40;;;;;;;10.35;6.30;;;5.50;85.80;;;;;;5022862;28;20030;-69
2021/11/19 06:11:21;;;;;;;11.95;6.63;;;5.50;85.80;;;;;;5014493;28;20037;-70
2021/11/19 06:13:50;;;;;;;10.93;6.55;;;5.50;85.80;;;;;;5029023;28;20032;-69
2021/11/19 06:16:21;;;;;;;9.02;5.50;;;5.50;86.20;;;;;;5026089;28;21454;-71
2021/11/19 06:18:52;;;;;;;11.07;6.50;;;5.40;85.90;;;;;;5024787;28;20129;-69
2021/11/19 06:21:32;;;;;;;11.40;6.28;;;5.40;85.90;;;;;;5025951;28;20059;-71
2021/11/19 06:24:07;;;;;;;13.65;6.75;;;5.40;86.00;;;;;;5030082;28;20485;-70
2021/11/19 06:26:33;;;;;;;14.30;6.80;;;5.40;86.00;;;;;;5029132;28;20028;-69
2021/11/19 06:29:06;;;;;;;11.73;6.43;;;5.40;85.90;;;;;;5046980;28;20021;-69
2021/11/19 06:31:37;;;;;;;13.55;7.28;;;5.40;85.90;;;;;;5027285;28;20025;-70
2021/11/19 06:34:04;;;;;;;11.52;6.82;;;5.30;85.80;;;;;;5019470;28;20026;-69
2021/11/19 06:36:31;;;;;;;13.63;7.03;;;5.30;85.80;;;;;;5026748;28;20071;-69
2021/11/19 06:38:58;;;;;;;11.40;7.00;;;5.30;85.80;;;;;;5026948;28;20045;-69
2021/11/19 06:41:24;;;;;;;10.75;7.43;;;5.30;85.70;;;;;;5027748;28;20072;-69
2021/11/19 06:43:50;;;;;;;10.18;6.97;;;5.30;85.80;;;;;;5024409;28;20060;-68
2021/11/19 06:46:17;;;;;;;14.30;8.85;;;5.30;85.80;;;;;;5025102;28;20128;-69
2021/11/19 06:48:45;;;;;;;15.30;7.68;;;5.30;85.90;;;;;;5017332;28;20045;-68
2021/11/19 06:51:11;;;;;;;20.00;8.40;;;5.20;85.70;;;;;;5023366;28;20595;-69
2021/11/19 06:53:39;;;;;;;14.80;7.32;;;5.20;85.70;;;;;;5027413;28;20513;-69
2021/11/19 06:56:06;;;;;;;14.30;7.35;;;5.20;85.60;;;;;;5026462;28;20076;-68
2021/11/19 06:58:32;;;;;;;15.00;7.07;;;5.20;85.60;;;;;;5027401;28;20033;-69
2021/11/19 07:00:58;;;;;;;16.88;9.38;;;5.10;85.50;;;;;;5023355;28;20435;-68
2021/11/19 07:03:24;;;;;;;14.90;8.48;;;5.10;85.40;;;;;;5030149;28;20076;-69
2021/11/19 07:05:51;;;;;;;14.10;7.60;;;5.10;85.50;;;;;;5012727;28;20061;-69
2021/11/19 07:08:17;;;;;;;14.18;7.43;;;5.10;85.60;;;;;;5026004;28;20021;-68
2021/11/19 07:10:46;;;;;;;16.40;8.23;;;5.10;85.60;;;;;;5027064;28;20441;-69
2021/11/19 07:13:13;;;;;;;11.18;6.53;;;5.10;85.60;;;;;;5016998;28;20061;-69
2021/11/19 07:15:40;;;;;;;13.18;7.47;;;5.10;85.60;;;;;;5020014;28;20456;-69
2021/11/19 07:18:06;;;;;;;14.13;7.00;;;5.10;85.50;;;;;;5023350;28;20496;-68
2021/11/19 07:20:34;;;;;;;14.40;7.97;;;5.10;85.40;;;;;;5025728;28;20014;-69
2021/11/19 07:23:01;;;;;;;14.98;8.25;;;5.10;85.30;;;;;;5026226;28;20032;-68
2021/11/19 07:25:28;;;;;;;18.98;9.43;;;5.10;85.30;;;;;;5014514;28;20030;-68
2021/11/19 07:27:57;;;;;;;16.02;8.80;;;5.10;85.20;;;;;;5018837;28;20208;-69
2021/11/19 07:30:32;;;;;;;15.55;8.27;;;5.10;85.10;;;;;;5023980;28;20026;-68
2021/11/19 07:32:58;;;;;;;15.20;7.72;;;5.10;84.90;;;;;;5011950;28;20485;-68
2021/11/19 07:35:24;;;;;;;16.23;8.10;;;5.20;84.90;;;;;;5026197;28;20037;-68
2021/11/19 07:37:50;;;;;;;12.10;7.28;;;5.20;84.90;;;;;;5016609;28;20396;-69
2021/11/19 07:40:20;;;;;;;13.80;7.65;;;5.30;84.80;;;;;;5021358;28;20021;-69
2021/11/19 07:42:46;;;;;;;13.77;7.28;;;5.30;84.60;;;;;;5026776;28;20028;-68
2021/11/19 07:45:12;;;;;;;12.10;7.13;;;5.30;84.30;;;;;;5026429;28;20033;-69
2021/11/19 07:47:39;;;;;;;11.55;7.13;;;5.40;84.10;;;;;;5030178;28;20107;-68
2021/11/19 07:50:08;;;;;;;12.93;6.97;;;5.50;84.10;;;;;;5029470;28;20025;-68
2021/11/19 07:52:34;;;;;;;14.38;6.95;;;5.70;83.90;;;;;;5019315;28;20129;-69
2021/11/19 07:55:00;;;;;;;10.98;6.60;;;6.20;83.00;;;;;;5019967;28;20111;-69
2021/11/19 07:57:25;;;;;;;12.07;7.10;;;6.80;81.60;;;;;;5027781;28;20045;-68
2021/11/19 07:59:51;;;;;;;13.15;6.72;;;7.40;80.00;;;;;;5015446;28;20028;-69
2021/11/19 08:02:17;;;;;;;15.15;7.50;;;7.90;78.40;;;;;;5029387;28;20055;-69
2021/11/19 08:04:43;;;;;;;13.45;7.47;;;8.50;77.00;;;;;;5028562;28;20095;-69
2021/11/19 08:07:09;;;;;;;13.50;6.90;;;9.10;75.60;;;;;;5026700;28;20140;-69
2021/11/19 08:09:35;;;;;;;12.15;7.07;;;9.70;74.10;;;;;;5026539;28;20043;-69
2021/11/19 08:12:01;;;;;;;14.65;6.68;;;10.30;72.70;;;;;;5027397;28;20452;-70
2021/11/19 08:14:27;;;;;;;14.43;7.28;;;10.90;71.30;;;;;;5028986;28;20042;-69
2021/11/19 08:17:04;;;;;;;11.65;7.70;;;11.40;69.90;;;;;;5029341;28;20391;-69
2021/11/19 08:19:43;;;;;;;14.00;7.22;;;12.00;68.50;;;;;;5026700;28;20033;-69
2021/11/19 08:22:09;;;;;;;17.77;7.65;;;12.60;67.10;;;;;;5019803;28;20033;-69
2021/11/19 08:24:35;;;;;;;15.30;8.35;;;13.20;65.70;;;;;;5026479;28;20079;-70
2021/11/19 08:27:08;;;;;;;16.75;9.20;;;13.70;64.20;;;;;;5027151;28;20032;-70
2021/11/19 08:29:36;;;;;;;22.45;8.50;;;14.30;62.60;;;;;;5028425;28;20029;-69
2021/11/19 08:32:04;;;;;;;13.68;8.32;;;14.90;61.30;;;;;;5027776;28;20044;-70
2021/11/19 08:34:30;;;;;;;12.43;7.97;;;15.40;60.10;;;;;;5025584;28;20104;-70
2021/11/19 08:36:56;;;;;;;15.70;9.32;;;16.00;58.70;;;;;;5025962;28;20175;-70
2021/11/19 08:39:23;;;;;;;13.32;9.32;;;16.50;57.60;;;;;;5026257;28;20048;-70
2021/11/19 08:41:50;;;;;;;14.57;9.20;;;17.10;56.20;;;;;;5015242;28;20058;-71
2021/11/19 08:44:15;;;;;;;16.45;10.05;;;17.60;54.90;;;;;;5020528;28;20101;-70
2021/11/19 08:46:45;;;;;;;15.82;11.23;;;18.00;53.80;;;;;;5027493;28;20710;-70
2021/11/19 08:49:15;;;;;;;12.35;11.05;;;18.50;52.90;;;;;;5025143;28;20044;-70
2021/11/19 08:51:42;;;;;;;18.27;11.40;;;18.90;51.90;;;;;;5025666;28;20541;-71
2021/11/19 08:54:10;;;;;;;16.08;11.90;;;19.10;51.20;;;;;;5027809;28;20388;-70
2021/11/19 08:56:39;;;;;;;18.80;13.35;;;19.60;50.20;;;;;;5029789;28;20026;-70
2021/11/19 08:59:07;;;;;;;24.00;12.32;;;20.20;48.80;;;;;;5027771;28;20126;-71
2021/11/19 09:01:34;;;;;;;25.05;13.30;;;20.80;47.50;;;;;;5017290;28;20111;-70
2021/11/19 09:04:00;;;;;;;23.27;16.95;;;21.10;46.40;;;;;;5021521;28;20033;-71
2021/11/19 09:06:25;;;;;;;1506.03;754.55;;;21.50;45.10;;;;;;5025258;28;20025;-71
2021/11/19 09:08:51;;;;;;;23.77;18.25;;;21.80;43.90;;;;;;5028519;28;20017;-71
2021/11/19 09:11:21;;;;;;;21.90;18.70;;;22.20;43.10;;;;;;5014458;28;20022;-71
2021/11/19 09:13:49;;;;;;;19.50;12.85;;;22.50;41.80;;;;;;5016909;28;20026;-71
2021/11/19 09:16:17;;;;;;;23.30;10.73;;;22.90;41.10;;;;;;5022333;28;20026;-70
2021/11/19 09:19:04;;;;;;;18.23;7.38;;;23.20;40.50;;;;;;5025005;28;20108;-71
2021/11/19 09:21:34;;;;;;;16.05;5.65;;;22.10;41.10;;;;;;5024415;28;20033;-70
2021/11/19 09:24:07;;;;;;;17.52;6.68;;;20.30;44.60;;;;;;5014782;28;20501;-71
2021/11/19 09:26:41;;;;;;;17.80;5.82;;;18.80;47.70;;;;;;5014151;28;20025;-71
2021/11/19 09:29:21;;;;;;;19.52;7.30;;;17.80;50.50;;;;;;5027608;28;20029;-71
2021/11/19 09:31:47;;;;;;;17.98;11.27;;;18.20;51.20;;;;;;5025684;28;20029;-71
2021/11/19 09:34:15;;;;;;;22.50;16.45;;;19.90;48.20;;;;;;5024456;28;20025;-70
2021/11/19 09:36:41;;;;;;;19.08;11.98;;;21.30;45.10;;;;;;5017889;28;20029;-71
2021/11/19 09:39:10;;;;;;;20.08;12.70;;;22.40;42.70;;;;;;5029901;28;20045;-71
2021/11/19 09:41:57;;;;;;;20.10;12.75;;;23.30;40.80;;;;;;5028863;28;20033;-71
2021/11/19 09:45:10;;;;;;;17.30;10.88;;;24.30;38.50;;;;;;5027790;28;20018;-71
2021/11/19 09:47:58;;;;;;;20.90;11.65;;;24.90;37.50;;;;;;5027621;28;20103;-71
2021/11/19 09:50:48;;;;;;;17.55;11.25;;;24.50;37.00;;;;;;5026489;28;20036;-71
2021/11/19 09:53:29;;;;;;;19.00;9.70;;;22.60;39.60;;;;;;5027521;28;20485;-71
2021/11/19 09:56:32;;;;;;;15.05;4.28;;;21.00;42.90;;;;;;5024564;28;20017;-71
2021/11/19 09:58:58;;;;;;;15.05;3.55;;;20.30;44.20;;;;;;5015543;28;20125;-71
2021/11/19 10:01:48;;;;;;;10.93;3.58;;;22.40;41.80;;;;;;5015350;28;20463;-71
2021/11/19 10:04:29;;;;;;;20.23;10.98;;;23.90;38.80;;;;;;5020551;28;20030;-70
2021/11/19 10:07:00;;;;;;;15.70;12.77;;;25.00;36.60;;;;;;5019434;28;20053;-71
2021/11/19 10:09:32;;;;;;;;;;;25.70;34.60;;;;;;5024519;28;20036;-71
2021/11/19 10:12:14;;;;;;;20.27;11.85;;;26.20;33.80;;;;;;5026410;28;19909;-71
2021/11/19 10:14:52;;;;;;;14.60;8.95;;;26.80;32.70;;;;;;5013555;28;20108;-71
2021/11/19 10:17:36;;;;;;;19.48;8.68;;;27.20;32.10;;;;;;5026693;28;20017;-71
2021/11/19 10:20:12;;;;;;;16.90;8.98;;;27.70;31.40;;;;;;5028743;28;20518;-71
2021/11/19 10:22:56;;;;;;;20.52;7.20;;;28.10;30.70;;;;;;5025972;28;20026;-71
2021/11/19 10:25:39;;;;;;;16.38;7.45;;;28.40;30.00;;;;;;5023121;28;20033;-71
2021/11/19 10:28:15;;;;;;;16.75;7.47;;;28.90;29.60;;;;;;5023810;28;20124;-71
2021/11/19 10:30:46;;;;;;;17.08;7.22;;;29.50;29.60;;;;;;5023973;28;20523;-71
2021/11/19 10:33:25;;;;;;;17.70;6.18;;;30.00;28.90;;;;;;5023744;28;20026;-71
2021/11/19 10:36:09;;;;;;;20.35;7.25;;;30.20;28.30;;;;;;5018839;28;20108;-71
2021/11/19 10:38:47;;;;;;;19.80;8.35;;;30.70;28.00;;;;;;5012697;28;20034;-72
2021/11/19 10:41:50;;;;;;;19.25;13.85;;;31.20;27.70;;;;;;5026560;28;20087;-72
2021/11/19 10:44:52;;;;;;;17.95;10.35;;;31.50;26.70;;;;;;5026275;28;20029;-71
2021/11/19 10:47:42;;;;;;;20.67;18.77;;;31.90;26.40;;;;;;5010242;28;20104;-73
2021/11/19 10:50:50;;;;;;;19.02;11.50;;;32.40;25.80;;;;;;5026216;28;20481;-72
2021/11/19 10:53:56;;;;;;;12.90;5.95;;;32.90;25.60;;;;;;5026249;28;20437;-72
2021/11/19 10:56:34;;;;;;;17.08;7.32;;;33.00;25.20;;;;;;5026641;28;20056;-72
2021/11/19 10:59:19;;;;;;;17.60;5.80;;;33.20;25.10;;;;;;5025836;28;20034;-72
2021/11/19 11:02:01;;;;;;;13.95;4.75;;;33.30;25.00;;;;;;5039296;28;20168;-72
2021/11/19 11:04:58;;;;;;;15.70;3.90;;;33.70;24.60;;;;;;5015589;28;20041;-72
2021/11/19 11:07:37;;;;;;;14.95;3.60;;;34.00;24.30;;;;;;5015019;28;20045;-73
2021/11/19 11:10:14;;;;;;;10.55;3.08;;;33.90;23.50;;;;;;5014988;28;20030;-72
2021/11/19 11:12:46;;;;;;;15.07;3.53;;;33.30;23.70;;;;;;5016709;28;20013;-72
2021/11/19 11:15:12;;;;;;;12.13;3.22;;;32.90;24.40;;;;;;5025418;28;20029;-72
2021/11/19 11:17:53;;;;;;;13.48;3.55;;;33.00;24.20;;;;;;5015879;28;20473;-72
2021/11/19 11:20:28;;;;;;;13.82;3.38;;;33.10;24.00;;;;;;5030594;28;20030;-72
2021/11/19 11:22:57;;;;;;;15.60;3.50;;;32.90;24.20;;;;;;5030076;28;20380;-72
2021/11/19 11:25:32;;;;;;;13.55;3.42;;;33.30;23.80;;;;;;5027577;28;20022;-72
2021/11/19 11:28:15;;;;;;;11.85;3.05;;;33.50;23.60;;;;;;5022708;28;20026;-72
2021/11/19 11:30:47;;;;;;;13.30;3.50;;;33.50;23.00;;;;;;5018965;28;20038;-72
2021/11/19 11:33:51;;;;;;;12.30;3.70;;;33.60;23.10;;;;;;5016764;28;20034;-72
2021/11/19 11:36:43;;;;;;;13.55;3.17;;;33.60;23.40;;;;;;5008875;28;20041;-72
2021/11/19 11:39:15;;;;;;;11.95;3.40;;;34.00;23.00;;;;;;4941602;28;20042;-72
2021/11/19 11:42:03;;;;;;;11.38;3.20;;;34.30;23.00;;;;;;4951949;28;20039;-72
2021/11/19 11:44:44;;;;;;;11.70;3.50;;;34.50;22.60;;;;;;4937735;28;20071;-72
2021/11/19 11:47:28;;;;;;;10.70;3.20;;;34.70;22.60;;;;;;4949223;28;20554;-72
2021/11/19 11:49:57;;;;;;;12.05;3.10;;;34.80;22.10;;;;;;4953480;28;20059;-72
2021/11/19 11:52:28;;;;;;;14.93;4.50;;;35.10;22.10;;;;;;4951604;28;20023;-72
2021/11/19 11:55:09;;;;;;;12.10;2.95;;;35.30;22.20;;;;;;4950769;28;20443;-72
2021/11/19 11:57:40;;;;;;;17.67;3.50;;;35.10;22.50;;;;;;4944289;28;20047;-72
2021/11/19 12:00:15;;;;;;;12.18;3.28;;;35.60;22.10;;;;;;4951487;28;20109;-72
2021/11/19 12:02:41;;;;;;;10.38;3.22;;;36.20;21.90;;;;;;4951011;28;20043;-73
2021/11/19 12:05:32;;;;;;;26.92;16.05;;;36.60;21.60;;;;;;4943267;28;20373;-72
2021/11/19 12:08:35;;;;;;;12.68;3.10;;;37.00;21.30;;;;;;4952981;29;20092;-72
2021/11/19 12:11:34;;;;;;;11.23;3.20;;;37.10;20.20;;;;;;4949249;28;20429;-72
2021/11/19 12:14:22;;;;;;;13.90;3.80;;;37.30;20.90;;;;;;4949034;29;20067;-72
2021/11/19 12:17:13;;;;;;;11.43;2.92;;;37.20;19.80;;;;;;5007645;28;20044;-71
2021/11/19 12:19:56;;;;;;;14.63;3.63;;;37.00;19.80;;;;;;5028684;28;20036;-72
2021/11/19 12:22:44;;;;;;;12.90;2.90;;;37.20;20.50;;;;;;5018647;28;20025;-72
2021/11/19 12:25:47;;;;;;;13.98;3.40;;;37.30;20.00;;;;;;5023444;28;20030;-72
2021/11/19 12:28:23;;;;;;;13.57;3.40;;;37.50;19.70;;;;;;5024844;28;20036;-72
2021/11/19 12:31:07;;;;;;;12.75;3.42;;;37.30;19.90;;;;;;5026255;28;20500;-72
2021/11/19 12:33:46;;;;;;;15.20;4.30;;;37.40;20.20;;;;;;5025966;28;20025;-72
2021/11/19 12:36:11;;;;;;;30.02;14.02;;;37.40;20.10;;;;;;5016747;28;20068;-72
2021/11/19 12:38:46;;;;;;;13.82;3.90;;;37.00;20.70;;;;;;5026987;28;20458;-72
2021/11/19 12:41:33;;;;;;;15.30;3.35;;;35.40;21.70;;;;;;5028664;28;20029;-72
2021/11/19 12:44:36;;;;;;;15.15;3.47;;;32.10;23.30;;;;;;5017643;28;20086;-72
2021/11/19 12:47:47;;;;;;;14.25;3.42;;;29.90;25.20;;;;;;5028212;28;20111;-72
2021/11/19 12:50:42;;;;;;;12.75;3.53;;;28.00;27.10;;;;;;5005934;28;20056;-71
2021/11/19 12:53:29;;;;;;;16.92;3.70;;;27.00;28.10;;;;;;4962631;28;20046;-71
2021/11/19 12:56:14;;;;;;;14.25;3.55;;;25.90;29.10;;;;;;4995403;28;20115;-71
2021/11/19 12:59:08;;;;;;;14.50;3.55;;;25.30;30.00;;;;;;4992778;28;20039;-71
2021/11/19 13:02:02;;;;;;;17.38;3.45;;;25.00;30.50;;;;;;4993781;28;20947;-72
2021/11/19 13:04:37;;;;;;;14.20;3.60;;;25.70;29.00;;;;;;4994907;28;20030;-72
2021/11/19 13:07:07;;;;;;;13.35;3.38;;;28.10;27.70;;;;;;4995931;28;20034;-72
2021/11/19 13:09:52;;;;;;;;;;;29.70;26.40;;;;;;5012347;28;20660;-71